createdAt,value
2018-08-16T00:00:16.307Z,12.40
2018-08-16T00:02:45.566Z,10.33
2018-08-16T00:05:14.504Z,13.07
2018-08-16T00:07:43.105Z,10.93
2018-08-16T00:10:14.770Z,10.70
2018-08-16T00:12:44.629Z,10.07
2018-08-16T00:15:13.995Z,12.20
2018-08-16T00:17:42.526Z,11.20
2018-08-16T00:20:11.688Z,11.90
2018-08-16T00:22:40.291Z,12.93
2018-08-16T00:25:09.676Z,13.90
2018-08-16T00:27:38.419Z,13.63
2018-08-16T00:30:10.441Z,14.47
2018-08-16T00:32:39.261Z,12.30
2018-08-16T00:35:08.139Z,10.80
2018-08-16T00:37:36.963Z,10.60
2018-08-16T00:40:06.794Z,11.77
2018-08-16T00:42:35.439Z,13.27
2018-08-16T00:45:05.673Z,11.60
2018-08-16T00:47:34.848Z,13.70
2018-08-16T00:50:05.671Z,15.57
2018-08-16T00:52:35.136Z,11.03
2018-08-16T00:55:04.513Z,11.13
2018-08-16T00:57:33.318Z,12.17
2018-08-16T01:00:02.069Z,11.20
2018-08-16T01:02:30.672Z,18.70
2018-08-16T01:04:59.223Z,10.73
2018-08-16T01:07:27.807Z,10.10
2018-08-16T01:09:56.364Z,9.30
2018-08-16T01:12:24.943Z,12.07
2018-08-16T01:14:53.542Z,14.97
2018-08-16T01:17:22.066Z,15.53
2018-08-16T01:19:50.607Z,13.97
2018-08-16T01:22:19.202Z,10.77
2018-08-16T01:24:47.759Z,10.83
2018-08-16T01:27:16.297Z,9.83
2018-08-16T01:29:44.889Z,11.43
2018-08-16T01:32:13.505Z,12.25
2018-08-16T01:34:42.165Z,13.40
2018-08-16T01:37:10.757Z,13.60
2018-08-16T01:39:39.338Z,10.03
2018-08-16T01:42:07.905Z,8.57
2018-08-16T01:44:36.436Z,18.07
2018-08-16T01:47:05.014Z,9.43
2018-08-16T01:49:35.690Z,17.57
2018-08-16T01:52:04.396Z,11.80
2018-08-16T01:54:33.285Z,10.33
2018-08-16T01:57:02.399Z,9.87
2018-08-16T01:59:30.984Z,9.57
2018-08-16T02:01:59.576Z,15.73
2018-08-16T02:04:28.128Z,9.03
2018-08-16T02:06:56.757Z,7.70
2018-08-16T02:09:25.361Z,10.23
2018-08-16T02:11:54.001Z,9.63
2018-08-16T02:14:22.620Z,8.67
2018-08-16T02:16:51.679Z,9.10
2018-08-16T02:19:20.264Z,10.33
2018-08-16T02:21:48.817Z,17.33
2018-08-16T02:24:17.361Z,7.90
2018-08-16T02:26:45.880Z,10.27
2018-08-16T02:29:14.424Z,12.80
2018-08-16T02:31:43.032Z,8.30
2018-08-16T02:34:11.626Z,12.23
2018-08-16T02:36:40.176Z,9.77
2018-08-16T02:39:09.297Z,10.37
2018-08-16T02:41:38.465Z,9.50
2018-08-16T02:44:07.453Z,10.77
2018-08-16T02:46:36.612Z,11.28
2018-08-16T02:49:05.249Z,7.37
2018-08-16T02:51:33.826Z,9.20
2018-08-16T02:54:02.375Z,9.90
2018-08-16T02:56:30.873Z,10.30
2018-08-16T02:58:59.368Z,10.67
2018-08-16T03:01:27.886Z,9.57
2018-08-16T03:03:56.405Z,10.40
2018-08-16T03:06:24.949Z,13.10
2018-08-16T03:08:53.455Z,8.97
2018-08-16T03:11:22.024Z,13.53
2018-08-16T03:13:50.507Z,15.93
2018-08-16T03:16:19.042Z,12.00
2018-08-16T03:18:47.543Z,15.70
2018-08-16T03:21:16.068Z,9.63
2018-08-16T03:23:44.572Z,10.67
2018-08-16T03:26:13.102Z,13.73
2018-08-16T03:28:41.645Z,10.70
2018-08-16T03:31:10.145Z,9.57
2018-08-16T03:33:38.685Z,8.57
2018-08-16T03:36:07.197Z,12.20
2018-08-16T03:38:35.755Z,10.03
2018-08-16T03:41:04.716Z,10.82
2018-08-16T03:43:33.216Z,9.07
2018-08-16T03:46:01.724Z,10.13
2018-08-16T03:48:30.293Z,8.43
2018-08-16T03:50:58.842Z,14.23
2018-08-16T03:53:27.360Z,10.33
2018-08-16T03:55:56.035Z,10.50
2018-08-16T03:58:24.549Z,20.43
2018-08-16T04:00:53.133Z,9.40
2018-08-16T04:03:21.598Z,11.77
2018-08-16T04:05:50.171Z,14.77
2018-08-16T04:08:18.636Z,16.47
2018-08-16T04:10:47.167Z,8.50
2018-08-16T04:13:15.782Z,9.90
2018-08-16T04:15:44.404Z,9.10
2018-08-16T04:18:12.888Z,12.07
2018-08-16T04:20:41.390Z,12.50
2018-08-16T04:23:09.891Z,14.90
2018-08-16T04:25:38.413Z,8.07
2018-08-16T04:28:06.907Z,10.77
2018-08-16T04:30:35.471Z,9.63
2018-08-16T04:33:04.371Z,11.55
2018-08-16T04:35:32.930Z,7.73
2018-08-16T04:38:01.410Z,8.03
2018-08-16T04:40:30.215Z,7.90
2018-08-16T04:42:58.713Z,9.77
2018-08-16T04:45:27.231Z,12.20
2018-08-16T04:47:55.747Z,8.97
2018-08-16T04:50:24.283Z,14.00
2018-08-16T04:52:52.796Z,7.93
2018-08-16T04:55:21.363Z,8.10
2018-08-16T04:57:49.880Z,8.10
2018-08-16T05:00:18.411Z,12.80
2018-08-16T05:02:46.941Z,9.30
2018-08-16T05:05:15.467Z,14.40
2018-08-16T05:07:44.974Z,9.43
2018-08-16T05:10:13.477Z,9.20
2018-08-16T05:12:42.014Z,15.50
2018-08-16T05:15:12.050Z,12.30
2018-08-16T05:17:40.609Z,10.70
2018-08-16T05:20:10.780Z,9.07
2018-08-16T05:22:39.301Z,10.27
2018-08-16T05:25:08.297Z,12.97
2018-08-16T05:27:38.770Z,10.97
2018-08-16T05:30:08.329Z,14.30
2018-08-16T05:32:36.889Z,9.47
2018-08-16T05:35:23.627Z,7.93
2018-08-16T05:37:52.390Z,8.53
2018-08-16T05:40:21.258Z,10.50
2018-08-16T05:42:51.125Z,9.03
2018-08-16T05:45:20.024Z,8.60
2018-08-16T05:47:49.463Z,11.53
2018-08-16T05:50:18.349Z,11.25
2018-08-16T05:52:48.104Z,11.00
2018-08-16T05:55:17.929Z,9.23
2018-08-16T05:57:47.891Z,12.33
2018-08-16T06:00:17.537Z,8.70
2018-08-16T06:02:47.000Z,11.93
2018-08-16T06:05:16.728Z,9.20
2018-08-16T06:07:45.755Z,13.23
2018-08-16T06:10:15.057Z,12.47
2018-08-16T06:12:43.953Z,8.03
2018-08-16T06:15:13.569Z,12.10
2018-08-16T06:17:43.326Z,8.67
2018-08-16T06:20:12.928Z,10.80
2018-08-16T06:22:41.826Z,7.57
2018-08-16T06:25:12.819Z,7.93
2018-08-16T06:27:42.176Z,11.93
2018-08-16T06:30:13.317Z,7.07
2018-08-16T06:32:42.984Z,8.23
2018-08-16T06:35:11.974Z,8.50
2018-08-16T06:37:40.932Z,10.40
2018-08-16T06:40:14.115Z,8.67
2018-08-16T06:42:43.071Z,7.77
2018-08-16T06:45:11.941Z,7.08
2018-08-16T06:47:40.828Z,7.43
2018-08-16T06:50:09.809Z,11.10
2018-08-16T06:52:38.744Z,8.67
2018-08-16T06:55:08.276Z,8.43
2018-08-16T06:57:38.084Z,10.10
2018-08-16T07:00:09.102Z,9.93
2018-08-16T07:02:39.223Z,10.67
2018-08-16T07:05:08.780Z,9.40
2018-08-16T07:07:38.045Z,8.40
2018-08-16T07:10:09.340Z,9.73
2018-08-16T07:12:38.204Z,7.00
2018-08-16T07:15:09.704Z,7.73
2018-08-16T07:17:38.581Z,6.90
2018-08-16T07:20:08.128Z,7.50
2018-08-16T07:22:37.964Z,7.03
2018-08-16T07:25:07.664Z,9.40
2018-08-16T07:27:36.678Z,10.17
2018-08-16T07:30:07.688Z,6.97
2018-08-16T07:32:36.540Z,6.70
2018-08-16T07:35:05.788Z,7.63
2018-08-16T07:37:35.288Z,5.90
2018-08-16T07:40:05.522Z,8.77
2018-08-16T07:42:42.899Z,5.57
2018-08-16T07:45:13.119Z,4.72
2018-08-16T07:47:42.641Z,5.37
2018-08-16T07:50:11.811Z,6.33
2018-08-16T07:52:41.345Z,6.17
2018-08-16T07:55:11.125Z,14.60
2018-08-16T07:57:40.280Z,7.07
2018-08-16T08:00:16.806Z,6.87
2018-08-16T08:02:45.887Z,5.23
2018-08-16T08:05:14.728Z,7.77
2018-08-16T08:07:43.682Z,4.07
2018-08-16T08:10:12.635Z,5.17
2018-08-16T08:12:41.514Z,5.17
2018-08-16T08:15:12.456Z,3.40
2018-08-16T08:17:41.371Z,4.60
2018-08-16T08:20:13.314Z,4.10
2018-08-16T08:22:42.498Z,4.00
2018-08-16T08:25:12.142Z,5.17
2018-08-16T08:27:41.005Z,4.27
2018-08-16T08:30:15.389Z,6.00
2018-08-16T08:32:44.284Z,5.27
2018-08-16T08:35:13.383Z,3.77
2018-08-16T08:37:53.625Z,4.30
2018-08-16T08:40:22.492Z,3.80
2018-08-16T08:42:51.473Z,5.47
2018-08-16T08:45:20.408Z,3.60
2018-08-16T08:47:53.561Z,3.07
2018-08-16T08:50:22.513Z,2.90
2018-08-16T08:52:51.354Z,3.83
2018-08-16T08:55:31.606Z,3.20
2018-08-16T08:58:11.957Z,4.00
2018-08-16T09:00:40.918Z,3.60
2018-08-16T09:03:09.783Z,2.77
2018-08-16T09:05:38.783Z,2.67
2018-08-16T09:08:07.904Z,3.17
2018-08-16T09:10:49.323Z,6.10
2018-08-16T09:13:29.492Z,3.03
2018-08-16T09:15:59.528Z,2.90
2018-08-16T09:18:28.518Z,3.00
2018-08-16T09:20:58.799Z,3.33
2018-08-16T09:23:27.988Z,2.53
2018-08-16T09:25:56.904Z,5.60
2018-08-16T09:28:26.279Z,4.20
2018-08-16T09:31:06.436Z,3.40
2018-08-16T09:33:46.884Z,2.77
2018-08-16T09:36:15.893Z,3.00
2018-08-16T09:38:44.735Z,3.13
2018-08-16T09:41:13.628Z,2.80
2018-08-16T09:43:42.562Z,3.20
2018-08-16T09:47:21.652Z,5.17
2018-08-16T09:49:51.319Z,3.50
2018-08-16T09:52:21.032Z,2.60
2018-08-16T09:54:50.227Z,3.87
2018-08-16T09:57:19.172Z,4.33
2018-08-16T09:59:48.059Z,2.37
2018-08-16T10:02:17.595Z,2.63
2018-08-16T10:04:47.192Z,4.23
2018-08-16T10:07:16.283Z,3.50
2018-08-16T10:09:45.103Z,6.60
2018-08-16T10:12:14.129Z,3.33
2018-08-16T10:14:42.978Z,4.20
2018-08-16T10:17:11.800Z,3.50
2018-08-16T10:19:40.779Z,3.03
2018-08-16T10:22:09.676Z,5.77
2018-08-16T10:24:38.610Z,3.97
2018-08-16T10:27:07.592Z,5.43
2018-08-16T10:29:36.465Z,3.00
2018-08-16T10:32:05.721Z,2.80
2018-08-16T10:34:34.574Z,3.73
2018-08-16T10:37:04.614Z,3.00
2018-08-16T10:39:33.466Z,3.23
2018-08-16T10:42:02.464Z,3.37
2018-08-16T10:44:31.372Z,4.10
2018-08-16T10:47:00.201Z,3.63
2018-08-16T10:49:29.058Z,3.67
2018-08-16T10:51:57.956Z,3.07
2018-08-16T10:54:26.817Z,3.70
2018-08-16T10:56:55.708Z,3.30
2018-08-16T10:59:24.787Z,3.17
2018-08-16T11:01:53.637Z,3.20
2018-08-16T11:04:22.468Z,3.27
2018-08-16T11:06:51.315Z,3.20
2018-08-16T11:09:20.275Z,3.60
2018-08-16T11:11:50.293Z,3.40
2018-08-16T11:14:19.166Z,2.63
2018-08-16T11:16:47.991Z,4.43
2018-08-16T11:19:17.028Z,2.97
2018-08-16T11:21:46.939Z,3.73
2018-08-16T11:24:15.797Z,3.00
2018-08-16T11:26:45.039Z,3.27
2018-08-16T11:29:14.161Z,2.97
2018-08-16T11:31:43.060Z,3.77
2018-08-16T11:34:11.952Z,3.00
2018-08-16T11:36:40.857Z,4.03
2018-08-16T11:39:09.739Z,3.17
2018-08-16T11:41:38.569Z,3.27
2018-08-16T11:44:07.749Z,3.33
2018-08-16T11:46:37.251Z,3.27
2018-08-16T11:49:06.013Z,3.50
2018-08-16T11:51:34.857Z,2.83
2018-08-16T11:54:05.469Z,4.17
2018-08-16T11:56:34.316Z,2.47
2018-08-16T11:59:03.177Z,4.33
2018-08-16T12:01:32.091Z,2.77
2018-08-16T12:04:01.455Z,2.57
2018-08-16T12:06:30.285Z,2.97
2018-08-16T12:08:59.235Z,3.13
2018-08-16T12:11:28.156Z,2.60
2018-08-16T12:13:57.261Z,2.27
2018-08-16T12:16:26.134Z,3.37
2018-08-16T12:18:55.092Z,2.97
2018-08-16T12:21:23.955Z,3.00
2018-08-16T12:23:52.856Z,3.07
2018-08-16T12:26:21.680Z,3.60
2018-08-16T12:28:50.582Z,4.70
2018-08-16T12:31:19.418Z,3.40
2018-08-16T12:33:48.280Z,2.60
2018-08-16T12:36:17.197Z,3.73
2018-08-16T12:38:46.027Z,3.93
2018-08-16T12:41:14.969Z,6.17
2018-08-16T12:43:43.782Z,4.93
2018-08-16T12:46:12.763Z,2.90
2018-08-16T12:48:43.458Z,2.60
2018-08-16T12:51:12.373Z,3.43
2018-08-16T12:53:41.289Z,4.63
2018-08-16T12:56:10.120Z,2.93
2018-08-16T12:58:39.755Z,2.53
2018-08-16T13:01:08.693Z,3.50
2018-08-16T13:03:37.521Z,2.70
2018-08-16T13:06:06.392Z,3.30
2018-08-16T13:08:35.212Z,3.50
2018-08-16T13:11:04.547Z,2.83
2018-08-16T13:13:33.387Z,3.80
2018-08-16T13:16:02.240Z,2.43
2018-08-16T13:18:31.238Z,2.60
2018-08-16T13:21:00.116Z,3.00
2018-08-16T13:23:28.984Z,2.47
2018-08-16T13:25:57.875Z,2.63
2018-08-16T13:28:26.700Z,2.63
2018-08-16T13:30:55.578Z,3.00
2018-08-16T13:33:24.554Z,2.43
2018-08-16T13:35:53.377Z,3.37
2018-08-16T13:38:23.341Z,3.22
2018-08-16T13:40:52.172Z,3.27
2018-08-16T13:43:21.200Z,3.37
2018-08-16T13:45:50.069Z,2.70
2018-08-16T13:48:18.909Z,2.63
2018-08-16T13:50:49.509Z,2.97
2018-08-16T13:53:19.012Z,2.47
2018-08-16T13:55:47.906Z,2.63
2018-08-16T13:58:16.789Z,3.50
2018-08-16T14:00:45.629Z,3.13
2018-08-16T14:03:14.573Z,3.63
2018-08-16T14:05:43.446Z,2.70
2018-08-16T14:08:12.345Z,2.87
2018-08-16T14:10:41.238Z,8.27
2018-08-16T14:13:10.111Z,13.87
2018-08-16T14:15:38.975Z,11.13
2018-08-16T14:18:07.820Z,11.03
2018-08-16T14:20:36.644Z,11.97
2018-08-16T14:23:05.549Z,9.73
2018-08-16T14:25:34.420Z,7.43
2018-08-16T14:28:03.391Z,10.23
2018-08-16T14:30:32.222Z,9.13
2018-08-16T14:33:01.190Z,8.20
2018-08-16T14:35:30.055Z,7.93
2018-08-16T14:37:59.396Z,6.87
2018-08-16T14:40:28.609Z,5.43
2018-08-16T14:42:57.510Z,5.07
2018-08-16T14:45:26.387Z,4.60
2018-08-16T14:47:55.195Z,6.07
2018-08-16T14:50:24.036Z,4.57
2018-08-16T14:52:52.878Z,4.23
2018-08-16T14:55:21.707Z,6.40
2018-08-16T14:57:50.520Z,6.37
2018-08-16T15:00:19.375Z,4.47
2018-08-16T15:02:48.229Z,4.43
2018-08-16T15:05:17.089Z,4.27
2018-08-16T15:07:46.031Z,3.70
2018-08-16T15:10:14.886Z,3.13
2018-08-16T15:12:43.712Z,3.60
2018-08-16T15:15:13.232Z,3.80
2018-08-16T15:17:43.683Z,4.57
2018-08-16T15:20:13.144Z,4.90
2018-08-16T15:22:42.036Z,3.57
2018-08-16T15:25:11.091Z,3.23
2018-08-16T15:27:39.913Z,3.73
2018-08-16T15:30:09.453Z,3.90
2018-08-16T15:32:38.311Z,3.00
2018-08-16T15:35:09.043Z,3.13
2018-08-16T15:37:37.999Z,4.17
2018-08-16T15:40:06.813Z,3.30
2018-08-16T15:42:35.707Z,5.43
2018-08-16T15:45:05.007Z,3.53
2018-08-16T15:47:33.901Z,5.83
2018-08-16T15:50:03.034Z,3.50
2018-08-16T15:52:31.910Z,3.50
2018-08-16T15:55:00.787Z,5.13
2018-08-16T15:57:29.685Z,4.00
2018-08-16T15:59:59.297Z,3.70
2018-08-16T16:02:46.319Z,3.00
2018-08-16T16:05:23.027Z,2.70
2018-08-16T17:21:29.349Z,2.83
2018-08-16T17:23:58.333Z,2.57
2018-08-16T17:26:55.567Z,2.73
2018-08-16T17:42:36.403Z,2.47
2018-08-16T17:45:11.031Z,2.55
2018-08-16T17:48:21.479Z,2.50
2018-08-16T17:51:48.101Z,2.53
2018-08-16T17:54:55.241Z,2.97
2018-08-16T17:57:24.136Z,2.27
2018-08-16T17:59:53.074Z,2.50
2018-08-16T18:02:22.020Z,2.57
2018-08-16T18:04:51.250Z,3.00
2018-08-16T18:07:20.163Z,2.50
2018-08-16T18:09:49.001Z,3.10
2018-08-16T18:12:18.221Z,2.50
2018-08-16T18:14:47.087Z,2.53
2018-08-16T18:17:15.997Z,2.73
2018-08-16T18:19:44.862Z,2.60
2018-08-16T18:22:13.792Z,2.67
2018-08-16T18:24:42.711Z,3.17
2018-08-16T18:27:11.630Z,2.70
2018-08-16T18:29:40.607Z,2.83
2018-08-16T18:32:09.559Z,2.93
2018-08-16T18:34:38.428Z,2.90
2018-08-16T18:37:07.417Z,3.07
2018-08-16T18:39:36.312Z,3.00
2018-08-16T18:42:05.330Z,3.93
2018-08-16T18:44:34.192Z,2.93
2018-08-16T18:47:03.032Z,3.20
2018-08-16T18:49:31.895Z,2.93
2018-08-16T18:52:00.810Z,3.07
2018-08-16T18:54:29.680Z,2.60
2018-08-16T18:56:58.561Z,2.60
2018-08-16T18:59:27.462Z,2.40
2018-08-16T19:01:56.270Z,3.13
2018-08-16T19:04:25.304Z,3.10
2018-08-16T19:06:54.201Z,2.53
2018-08-16T19:09:23.113Z,2.30
2018-08-16T19:11:52.005Z,2.00
2018-08-16T19:14:21.747Z,3.23
2018-08-16T19:16:50.672Z,1.87
2018-08-16T19:19:19.561Z,2.27
2018-08-16T19:21:48.437Z,3.37
2018-08-16T19:24:17.401Z,2.30
2018-08-16T19:26:46.276Z,2.37
2018-08-16T19:29:15.148Z,3.97
2018-08-16T19:31:43.989Z,1.87
2018-08-16T19:34:12.919Z,2.00
2018-08-16T19:36:41.812Z,5.10
2018-08-16T19:39:12.306Z,1.67
2018-08-16T19:41:41.287Z,6.83
2018-08-16T19:44:10.177Z,2.15
2018-08-16T19:46:39.036Z,1.50
2018-08-16T19:49:07.920Z,2.37
2018-08-16T19:51:36.796Z,1.77
2018-08-16T19:54:05.663Z,1.73
2018-08-16T19:56:34.488Z,4.43
2018-08-16T19:59:03.380Z,1.37
2018-08-16T20:01:32.264Z,1.37
2018-08-16T20:04:02.277Z,1.30
2018-08-16T20:06:31.217Z,1.90
2018-08-16T20:09:00.189Z,1.30
2018-08-16T20:11:29.782Z,1.20
2018-08-16T20:13:58.739Z,1.57
2018-08-16T20:16:28.338Z,1.40
2018-08-16T20:18:57.230Z,1.55
2018-08-16T20:21:26.118Z,1.13
2018-08-16T20:23:55.021Z,1.13
2018-08-16T20:26:23.924Z,1.30
2018-08-16T20:28:52.781Z,1.53
2018-08-16T20:31:21.594Z,2.12
2018-08-16T20:33:50.517Z,1.33
2018-08-16T20:36:20.109Z,1.40
2018-08-16T20:38:48.972Z,1.60
2018-08-16T20:41:18.011Z,2.67
2018-08-16T20:43:46.893Z,1.90
2018-08-16T20:46:15.722Z,1.63
2018-08-16T20:48:44.625Z,1.23
2018-08-16T20:51:13.476Z,1.13
2018-08-16T20:53:42.299Z,1.20
2018-08-16T20:56:11.190Z,1.00
2018-08-16T20:58:40.015Z,2.33
2018-08-16T21:01:08.949Z,1.07
2018-08-16T21:03:37.688Z,1.80
2018-08-16T21:06:10.133Z,3.63
2018-08-16T21:08:39.031Z,1.87
2018-08-16T21:11:07.935Z,1.37
2018-08-16T21:13:36.906Z,1.37
2018-08-16T21:16:06.200Z,1.40
2018-08-16T21:18:35.267Z,1.60
2018-08-16T21:21:05.435Z,1.27
2018-08-16T21:23:34.262Z,1.40
2018-08-16T21:26:03.353Z,1.40
2018-08-16T21:28:32.285Z,1.30
2018-08-16T21:31:01.155Z,1.30
2018-08-16T21:33:30.149Z,1.50
2018-08-16T21:35:59.096Z,1.27
2018-08-16T21:38:29.283Z,1.17
2018-08-16T21:40:59.768Z,1.50
2018-08-16T21:43:28.638Z,1.43
2018-08-16T21:45:57.551Z,2.60
2018-08-16T21:48:26.412Z,1.37
2018-08-16T21:50:55.028Z,1.37
2018-08-16T21:53:23.627Z,1.27
2018-08-16T21:55:52.157Z,1.53
2018-08-16T21:58:20.735Z,1.57
2018-08-16T22:00:54.985Z,2.07
2018-08-16T22:03:24.885Z,1.30
2018-08-16T22:05:56.235Z,1.40
2018-08-16T22:08:25.716Z,1.40
2018-08-16T22:10:54.880Z,1.30
2018-08-16T22:13:24.195Z,0.97
2018-08-16T22:15:52.695Z,1.50
2018-08-16T22:18:21.193Z,1.30
2018-08-16T22:20:49.971Z,1.47
2018-08-16T22:23:18.466Z,2.17
2018-08-16T22:25:46.952Z,1.70
2018-08-16T22:28:15.529Z,1.60
2018-08-16T22:30:44.297Z,1.57
2018-08-16T22:33:12.856Z,1.70
2018-08-16T22:35:41.340Z,1.70
2018-08-16T22:38:09.879Z,1.60
2018-08-16T22:40:39.358Z,1.40
2018-08-16T22:43:08.117Z,1.97
2018-08-16T22:45:36.635Z,1.40
2018-08-16T22:48:05.139Z,1.70
2018-08-16T22:50:33.725Z,1.60
2018-08-16T22:53:02.300Z,3.83
2018-08-16T22:55:30.784Z,2.07
2018-08-16T22:57:59.297Z,1.37
2018-08-16T23:00:27.799Z,1.57
2018-08-16T23:02:56.304Z,1.53
2018-08-16T23:05:24.828Z,1.73
2018-08-16T23:07:53.360Z,1.70
2018-08-16T23:10:22.309Z,1.57
2018-08-16T23:12:50.851Z,1.57
2018-08-16T23:15:19.423Z,1.70
2018-08-16T23:17:47.950Z,1.87
2018-08-16T23:20:16.552Z,1.40
2018-08-16T23:22:45.040Z,2.00
2018-08-16T23:25:13.566Z,1.60
2018-08-16T23:27:42.065Z,1.53
2018-08-16T23:30:12.336Z,1.73
2018-08-16T23:32:41.032Z,1.90
2018-08-16T23:35:10.017Z,1.83
2018-08-16T23:37:38.564Z,1.90
2018-08-16T23:40:08.155Z,1.50
2018-08-16T23:42:36.827Z,1.70
2018-08-16T23:45:05.712Z,1.80
2018-08-16T23:47:34.214Z,1.90
2018-08-16T23:50:04.275Z,1.80
2018-08-16T23:52:32.780Z,3.13
2018-08-16T23:55:01.296Z,1.53
2018-08-16T23:57:29.844Z,1.57
2018-08-16T23:59:58.354Z,1.60
